PWSweather.com
Personal Weather Stations
Station Observations
TORPERJOSANG
Carretera De Villel SN , MochalesES 19332

Carretera De Villel SN MochalesES 19332

Lat: 41.09957, Lon: -2.012569

Elevation: 3215

Station Type: PSW-20

http://www.torresp.com

High Low Average
Temperature 74.8°F23.8°C 71.1°F21.7°C 72.9°F22.7°C
Dew Point 51.3°F10.7°C 47.6°F8.7°C 49.1°F9.5°C
Winds 11.5 mph 18.5 kmh 1.2 mph 1.9 kmh 6.0 mph E9.7 kmh E
Wind Gusts 17.3 mph27.8 kmh 2.3 mph3.7 kmh 10.0 mph16.1 kmh
Humidity 45% 41% 43%
Pressure 30.36 in1028.1 mb 30.03 in1016.9 mb -
Precipitation 0.00 in0.0 mm - -
Hour Temp Dew Point Humidity Winds Wind Gusts Pressure Precip Precip Rate Daily Precip Total
02:45 PM 72.3°F22.4°C 48.6°F9.2°C 43% 9.2 mph NE14.8 kmh NE 17.3 mph27.8 kmh 30.03 in1016.9 mb - 0.00 in0.0 mm 0.00 in0.0 mm
02:50 PM 72.5°F22.5°C 48.7°F9.3°C 43% 8.1 mph E13.0 kmh E 12.7 mph20.4 kmh 30.03 in1016.9 mb - 0.00 in0.0 mm 0.00 in0.0 mm
02:55 PM 72.7°F22.6°C 48.9°F9.4°C 43% 8.1 mph E13.0 kmh E 12.7 mph20.4 kmh 30.03 in1016.9 mb - 0.00 in0.0 mm 0.00 in0.0 mm
03:00 PM 72.9°F22.7°C 49.1°F9.5°C 43% 10.4 mph NE16.7 kmh NE 13.8 mph22.2 kmh 30.03 in1016.9 mb - 0.00 in0.0 mm 0.00 in0.0 mm
03:10 PM 72.5°F22.5°C 48.7°F9.3°C 43% 5.8 mph NE9.3 kmh NE 11.5 mph18.5 kmh 30.36 in1028.1 mb - 0.00 in0.0 mm 0.00 in0.0 mm
03:15 PM 72.7°F22.6°C 48.9°F9.4°C 43% 3.5 mph E5.6 kmh E 5.8 mph9.3 kmh 30.36 in1028.1 mb - 0.00 in0.0 mm 0.00 in0.0 mm
03:20 PM 72.9°F22.7°C 49.1°F9.5°C 43% 6.9 mph SE11.1 kmh SE 9.2 mph14.8 kmh 30.36 in1028.1 mb - 0.00 in0.0 mm 0.00 in0.0 mm
03:25 PM 72.9°F22.7°C 49.1°F9.5°C 43% 8.1 mph NE13.0 kmh NE 11.5 mph18.5 kmh 30.36 in1028.1 mb - 0.00 in0.0 mm 0.00 in0.0 mm
03:30 PM 73.0°F22.8°C 49.2°F9.6°C 43% 9.2 mph NE14.8 kmh NE 12.7 mph20.4 kmh 30.36 in1028.1 mb - 0.00 in0.0 mm 0.00 in0.0 mm
03:35 PM 72.5°F22.5°C 48.1°F8.9°C 42% 8.1 mph NE13.0 kmh NE 10.4 mph16.7 kmh 30.36 in1028.1 mb - 0.00 in0.0 mm 0.00 in0.0 mm
03:40 PM 72.3°F22.4°C 48.6°F9.2°C 43% 5.8 mph NE9.3 kmh NE 9.2 mph14.8 kmh 30.36 in1028.1 mb - 0.00 in0.0 mm 0.00 in0.0 mm
03:45 PM 72.7°F22.6°C 49.5°F9.7°C 44% 3.5 mph E5.6 kmh E 8.1 mph13.0 kmh 30.36 in1028.1 mb - 0.00 in0.0 mm 0.00 in0.0 mm
03:50 PM 72.9°F22.7°C 49.7°F9.8°C 44% 5.8 mph E9.3 kmh E 8.1 mph13.0 kmh 30.36 in1028.1 mb - 0.00 in0.0 mm 0.00 in0.0 mm
03:55 PM 73.2°F22.9°C 49.4°F9.7°C 43% 8.1 mph E13.0 kmh E 12.7 mph20.4 kmh 30.36 in1028.1 mb - 0.00 in0.0 mm 0.00 in0.0 mm
04:00 PM 73.4°F23.0°C 50.8°F10.4°C 45% 3.5 mph E5.6 kmh E 9.2 mph14.8 kmh 30.36 in1028.1 mb - 0.00 in0.0 mm 0.00 in0.0 mm
04:10 PM 73.8°F23.2°C 49.9°F9.9°C 43% 3.5 mph SE5.6 kmh SE 8.1 mph13.0 kmh 30.33 in1027.1 mb - 0.00 in0.0 mm 0.00 in0.0 mm
04:15 PM 73.4°F23.0°C 49.5°F9.7°C 43% 11.5 mph E18.5 kmh E 15.0 mph24.1 kmh 30.33 in1027.1 mb - 0.00 in0.0 mm 0.00 in0.0 mm
04:20 PM 73.4°F23.0°C 50.8°F10.4°C 45% 6.9 mph SW11.1 kmh SW 11.5 mph18.5 kmh 30.33 in1027.1 mb - 0.00 in0.0 mm 0.00 in0.0 mm
04:25 PM 73.8°F23.2°C 50.5°F10.3°C 44% 2.3 mph N3.7 kmh N 8.1 mph13.0 kmh 30.33 in1027.1 mb - 0.00 in0.0 mm 0.00 in0.0 mm
04:30 PM 74.1°F23.4°C 50.2°F10.1°C 43% 4.6 mph NE7.4 kmh NE 8.1 mph13.0 kmh 30.33 in1027.1 mb - 0.00 in0.0 mm 0.00 in0.0 mm
04:35 PM 74.7°F23.7°C 51.3°F10.7°C 44% 2.3 mph NE3.7 kmh NE 4.6 mph7.4 kmh 30.33 in1027.1 mb - 0.00 in0.0 mm 0.00 in0.0 mm
04:40 PM 74.8°F23.8°C 50.2°F10.1°C 42% 2.3 mph W3.7 kmh W 4.6 mph7.4 kmh 30.33 in1027.1 mb - 0.00 in0.0 mm 0.00 in0.0 mm
04:45 PM 74.3°F23.5°C 49.7°F9.8°C 42% 4.6 mph NE7.4 kmh NE 10.4 mph16.7 kmh 30.33 in1027.1 mb - 0.00 in0.0 mm 0.00 in0.0 mm
04:50 PM 73.4°F23.0°C 50.2°F10.1°C 44% 4.6 mph E7.4 kmh E 8.1 mph13.0 kmh 30.33 in1027.1 mb - 0.00 in0.0 mm 0.00 in0.0 mm
04:55 PM 73.8°F23.2°C 49.9°F9.9°C 43% 8.1 mph NE13.0 kmh NE 12.7 mph20.4 kmh 30.33 in1027.1 mb - 0.00 in0.0 mm 0.00 in0.0 mm
05:00 PM 74.1°F23.4°C 48.9°F9.4°C 41% 8.1 mph NE13.0 kmh NE 15.0 mph24.1 kmh 30.33 in1027.1 mb - 0.00 in0.0 mm 0.00 in0.0 mm
05:10 PM 74.5°F23.6°C 49.9°F9.9°C 42% 2.3 mph N3.7 kmh N 6.9 mph11.1 kmh 30.33 in1027.1 mb - 0.00 in0.0 mm 0.00 in0.0 mm
05:15 PM 74.3°F23.5°C 50.4°F10.2°C 43% 5.8 mph NE9.3 kmh NE 8.1 mph13.0 kmh 30.33 in1027.1 mb - 0.00 in0.0 mm 0.00 in0.0 mm
05:20 PM 73.8°F23.2°C 49.9°F9.9°C 43% 3.5 mph E5.6 kmh E 4.6 mph7.4 kmh 30.33 in1027.1 mb - 0.00 in0.0 mm 0.00 in0.0 mm
05:25 PM 73.4°F23.0°C 49.5°F9.7°C 43% 6.9 mph E11.1 kmh E 9.2 mph14.8 kmh 30.33 in1027.1 mb - 0.00 in0.0 mm 0.00 in0.0 mm
05:30 PM 72.9°F22.7°C 48.4°F9.1°C 42% 2.3 mph NE3.7 kmh NE 8.1 mph13.0 kmh 30.33 in1027.1 mb - 0.00 in0.0 mm 0.00 in0.0 mm
05:35 PM 72.7°F22.6°C 48.9°F9.4°C 43% 1.2 mph SSW1.9 kmh SSW 3.5 mph5.6 kmh 30.33 in1027.1 mb - 0.00 in0.0 mm 0.00 in0.0 mm
05:40 PM 72.5°F22.5°C 48.1°F8.9°C 42% 8.1 mph E13.0 kmh E 11.5 mph18.5 kmh 30.33 in1027.1 mb - 0.00 in0.0 mm 0.00 in0.0 mm
05:45 PM 72.1°F22.3°C 47.8°F8.8°C 42% 6.9 mph E11.1 kmh E 12.7 mph20.4 kmh 30.33 in1027.1 mb - 0.00 in0.0 mm 0.00 in0.0 mm
05:50 PM 72.0°F22.2°C 47.6°F8.7°C 42% 4.6 mph NE7.4 kmh NE 9.2 mph14.8 kmh 30.33 in1027.1 mb - 0.00 in0.0 mm 0.00 in0.0 mm
05:55 PM 72.0°F22.2°C 48.2°F9.0°C 43% 2.3 mph E3.7 kmh E 3.5 mph5.6 kmh 30.33 in1027.1 mb - 0.00 in0.0 mm 0.00 in0.0 mm
06:00 PM 71.6°F22.0°C 47.9°F8.8°C 43% 1.2 mph SE1.9 kmh SE 2.3 mph3.7 kmh 30.33 in1027.1 mb - 0.00 in0.0 mm 0.00 in0.0 mm
06:10 PM 71.2°F21.8°C 48.2°F9.0°C 44% 5.8 mph NE9.3 kmh NE 12.7 mph20.4 kmh 30.33 in1027.1 mb - 0.00 in0.0 mm 0.00 in0.0 mm
06:15 PM 71.4°F21.9°C 48.4°F9.1°C 44% 3.5 mph E5.6 kmh E 5.8 mph9.3 kmh 30.33 in1027.1 mb - 0.00 in0.0 mm 0.00 in0.0 mm
06:20 PM 71.2°F21.8°C 48.2°F9.0°C 44% 8.1 mph ENE13.0 kmh ENE 9.2 mph14.8 kmh 30.33 in1027.1 mb - 0.00 in0.0 mm 0.00 in0.0 mm
06:25 PM 71.2°F21.8°C 48.2°F9.0°C 44% 9.2 mph ENE14.8 kmh ENE 10.4 mph16.7 kmh 30.33 in1027.1 mb - 0.00 in0.0 mm 0.00 in0.0 mm
06:30 PM 71.2°F21.8°C 48.2°F9.0°C 44% 6.9 mph ENE11.1 kmh ENE 8.1 mph13.0 kmh 30.33 in1027.1 mb - 0.00 in0.0 mm 0.00 in0.0 mm
06:35 PM 71.1°F21.7°C 48.0°F8.9°C 44% 10.4 mph NE16.7 kmh NE 13.8 mph22.2 kmh 30.33 in1027.1 mb - 0.00 in0.0 mm 0.00 in0.0 mm